Acle, United Kingdom
Current Conditions -  °F | °C
As of 10:20 PM on Saturday 27 Dec 2014 (Local Time) from EGSH Reporting Station
Scattered Clouds Scattered Clouds  
Wind Chill: 34°   Ceiling: Unl
Heat Index: 39°   Visibility: 6mi
Dew Point: 32°   Wind: 7mph
Humidity: 75%   Direction: 30°NNE
Pressure: 29.91"   Gusts: NA
Location:  52.64°N, 1.55°E
Report Text: EGSH 272220Z AUTO 03006KT 9999 SCT031/// SCT037/// 04/M00 Q1013
Loading
Personal Weather Stations






























Interactive Weather Map New forecast layout! Learn more

10-Day Weather Forecast

Advertisements
Track Severe Weather on mobile